Time;durP1;ratioP1;P1;durP2;ratioP2;P2;SDS_P1;SDS_P2;PMS_P1;PMS_P2;Temp;Humidity;BMP_temperature;BMP_pressure;BME280_temperature;BME280_humidity;BME280_pressure;Samples;Min_cycle;Max_cycle;Signal;HPM_P1;HPM_P2
2021/03/08 05:54:12;;;;;;;76.28;36.70;;;;;;;;;;5556801;23;27293;-64
2021/03/08 05:56:56;;;;;;;82.35;39.42;;;;;;;;;;4976970;23;20076;-63
2021/03/08 05:59:37;;;;;;;76.50;37.08;;;;;;;;;;4995583;28;20030;-64
2021/03/08 06:02:03;;;;;;;80.68;38.00;;;;;;;;;;4995578;28;20445;-63
2021/03/08 06:04:47;;;;;;;71.40;35.45;;;;;;;;;;4994857;28;20110;-63
2021/03/08 06:07:32;;;;;;;93.43;43.90;;;;;;;;;;4995607;28;20031;-64
2021/03/08 06:10:12;;;;;;;115.40;53.95;;;;;;;;;;4993431;28;20045;-62
2021/03/08 06:12:40;;;;;;;98.90;43.28;;;;;;;;;;4995905;28;20029;-62
2021/03/08 06:15:10;;;;;;;97.18;43.70;;;;;;;;;;4995482;28;20161;-63
2021/03/08 06:17:39;;;;;;;87.55;40.60;;;;;;;;;;4995411;28;20104;-63
2021/03/08 06:20:09;;;;;;;86.82;40.95;;;;;;;;;;4995044;28;20023;-62
2021/03/08 06:22:36;;;;;;;89.72;39.25;;;;;;;;;;4994545;28;20110;-62
2021/03/08 06:25:03;;;;;;;81.15;37.95;;;;;;;;;;4982528;28;20031;-62
2021/03/08 06:27:30;;;;;;;95.00;40.78;;;;;;;;;;4984825;28;20025;-63
2021/03/08 06:29:56;;;;;;;101.32;45.10;;;;;;;;;;4993534;28;20141;-63
2021/03/08 06:32:23;;;;;;;107.68;52.20;;;;;;;;;;4990004;28;20121;-65
2021/03/08 06:34:49;;;;;;;101.50;49.15;;;;;;;;;;4985989;28;20029;-64
2021/03/08 06:37:15;;;;;;;100.10;46.60;;;;;;;;;;4994656;28;20473;-63
2021/03/08 06:39:42;;;;;;;90.15;43.03;;;;;;;;;;4994881;28;20057;-64
2021/03/08 06:42:09;;;;;;;77.15;40.35;;;;;;;;;;4992221;28;20031;-64
2021/03/08 06:44:35;;;;;;;75.00;38.00;;;;;;;;;;4983273;28;20093;-63
2021/03/08 06:47:02;;;;;;;79.65;38.55;;;;;;;;;;4983863;28;20014;-63
2021/03/08 06:49:28;;;;;;;77.28;37.50;;;;;;;;;;4984091;28;20101;-63
2021/03/08 06:52:01;;;;;;;74.82;38.33;;;;;;;;;;4983633;28;20493;-65
2021/03/08 06:54:27;;;;;;;;;;;;;;;;;;4980383;28;20106;-64
2021/03/08 06:56:53;;;;;;;75.55;37.00;;;;;;;;;;4983020;28;20029;-63
2021/03/08 06:59:19;;;;;;;74.20;37.63;;;;;;;;;;4978058;28;20370;-63
2021/03/08 07:01:45;;;;;;;69.80;36.00;;;;;;;;;;4983612;28;20023;-64
2021/03/08 07:04:20;;;;;;;71.45;35.88;;;;;;;;;;4982443;28;20037;-65
2021/03/08 07:06:59;;;;;;;62.78;33.33;;;;;;;;;;4987435;28;20073;-65
2021/03/08 07:09:26;;;;;;;68.72;35.47;;;;;;;;;;4979619;28;20034;-64
2021/03/08 07:12:11;;;;;;;77.13;37.30;;;;;;;;;;4979484;28;20031;-64
2021/03/08 07:14:39;;;;;;;79.35;38.40;;;;;;;;;;4982641;28;20046;-64
2021/03/08 07:17:23;;;;;;;73.10;37.40;;;;;;;;;;4984047;28;20027;-63
2021/03/08 07:19:53;;;;;;;75.38;35.75;;;;;;;;;;4982410;28;20190;-63
2021/03/08 07:22:36;;;;;;;74.55;37.33;;;;;;;;;;4984681;28;20023;-63
2021/03/08 07:25:03;;;;;;;65.10;33.95;;;;;;;;;;4982846;28;20391;-64
2021/03/08 07:27:42;;;;;;;70.07;35.92;;;;;;;;;;4984733;28;20072;-64
2021/03/08 07:30:08;;;;;;;64.85;33.70;;;;;;;;;;4983411;28;20027;-66
2021/03/08 07:32:34;;;;;;;63.40;33.03;;;;;;;;;;4982450;28;20378;-66
2021/03/08 07:35:01;;;;;;;56.65;31.00;;;;;;;;;;4983991;28;20026;-64
2021/03/08 07:37:27;;;;;;;52.90;28.20;;;;;;;;;;4984175;28;20027;-65
2021/03/08 07:39:53;;;;;;;56.78;30.65;;;;;;;;;;4984532;28;20029;-63
2021/03/08 07:42:19;;;;;;;52.40;28.83;;;;;;;;;;4984070;28;20018;-64
2021/03/08 07:44:49;;;;;;;51.13;26.38;;;;;;;;;;4982669;28;20026;-65
2021/03/08 07:47:17;;;;;;;67.45;39.58;;;;;;;;;;4983032;28;20053;-64
2021/03/08 07:49:43;;;;;;;43.92;23.75;;;;;;;;;;4983747;28;20031;-63
2021/03/08 07:52:10;;;;;;;45.53;24.52;;;;;;;;;;4981731;28;20031;-64
2021/03/08 07:54:59;;;;;;;44.50;24.60;;;;;;;;;;4982702;28;20464;-64
2021/03/08 07:57:26;;;;;;;33.30;20.98;;;;;;;;;;4981987;28;20046;-62
2021/03/08 07:59:52;;;;;;;32.72;18.02;;;;;;;;;;4985005;28;20038;-64
2021/03/08 08:02:18;;;;;;;32.45;19.88;;;;;;;;;;4981831;28;20030;-65
2021/03/08 08:04:44;;;;;;;39.22;22.02;;;;;;;;;;4979407;28;20106;-66
2021/03/08 08:07:17;;;;;;;43.28;24.58;;;;;;;;;;4982864;28;20453;-69
2021/03/08 08:09:44;;;;;;;43.35;23.55;;;;;;;;;;4977910;28;20137;-66
2021/03/08 08:12:11;;;;;;;43.90;23.92;;;;;;;;;;4980869;28;20038;-67
2021/03/08 08:14:39;;;;;;;46.50;25.23;;;;;;;;;;4983050;28;20141;-64
2021/03/08 08:17:09;;;;;;;43.13;24.92;;;;;;;;;;4979012;28;20030;-68
2021/03/08 08:19:41;;;;;;;46.13;25.25;;;;;;;;;;4982094;28;20037;-65
2021/03/08 08:22:14;;;;;;;38.10;23.88;;;;;;;;;;4981356;28;20042;-62
2021/03/08 08:24:44;;;;;;;46.28;25.42;;;;;;;;;;4986331;28;20046;-66
2021/03/08 08:27:11;;;;;;;35.50;20.33;;;;;;;;;;4988708;28;20050;-65
2021/03/08 08:29:38;;;;;;;34.08;19.23;;;;;;;;;;4990258;28;20133;-63
2021/03/08 08:32:05;;;;;;;28.23;16.98;;;;;;;;;;4984423;28;20046;-63
2021/03/08 08:34:40;;;;;;;29.30;16.48;;;;;;;;;;4985368;28;20402;-64
2021/03/08 08:37:06;;;;;;;32.00;17.75;;;;;;;;;;4982782;28;20019;-64
2021/03/08 08:39:32;;;;;;;35.85;20.15;;;;;;;;;;4984259;28;20041;-64
2021/03/08 08:42:17;;;;;;;33.90;19.90;;;;;;;;;;4985271;28;20372;-64
2021/03/08 08:44:44;;;;;;;32.75;18.33;;;;;;;;;;4986071;28;20089;-68
2021/03/08 08:47:19;;;;;;;28.42;14.85;;;;;;;;;;4989659;28;20113;-65
2021/03/08 08:49:48;;;;;;;32.80;18.60;;;;;;;;;;4984943;28;20363;-63
2021/03/08 08:52:14;;;;;;;33.55;18.83;;;;;;;;;;4984321;28;20037;-63
2021/03/08 08:54:40;;;;;;;27.92;16.98;;;;;;;;;;4986842;28;20018;-64
2021/03/08 08:57:12;;;;;;;25.17;15.98;;;;;;;;;;4985259;28;20075;-63
2021/03/08 08:59:38;;;;;;;;;;;;;;;;;;4985096;28;20022;-64
2021/03/08 09:02:16;;;;;;;34.22;17.05;;;;;;;;;;4985661;28;20416;-64
2021/03/08 09:04:42;;;;;;;35.78;19.63;;;;;;;;;;4985368;28;20077;-63
2021/03/08 09:07:27;;;;;;;31.58;15.88;;;;;;;;;;4984717;28;20082;-63
2021/03/08 09:09:54;;;;;;;27.77;14.45;;;;;;;;;;4986632;28;20018;-63
2021/03/08 09:12:33;;;;;;;28.50;16.50;;;;;;;;;;4983766;28;20034;-63
2021/03/08 09:14:59;;;;;;;25.25;15.07;;;;;;;;;;4984142;28;20150;-64
2021/03/08 09:17:29;;;;;;;29.38;15.60;;;;;;;;;;4986566;28;20021;-63
2021/03/08 09:19:55;;;;;;;29.88;16.40;;;;;;;;;;4983968;28;20101;-64
2021/03/08 09:22:28;;;;;;;32.35;17.25;;;;;;;;;;4976771;28;20474;-63
2021/03/08 09:24:54;;;;;;;;;;;;;;;;;;4977327;28;20046;-64
2021/03/08 09:27:27;;;;;;;30.17;17.27;;;;;;;;;;4986616;28;19909;-64
2021/03/08 09:29:54;;;;;;;36.85;19.35;;;;;;;;;;4986996;28;20057;-64
2021/03/08 09:32:20;;;;;;;29.95;18.42;;;;;;;;;;4985672;28;20092;-63
2021/03/08 09:34:46;;;;;;;27.83;14.45;;;;;;;;;;4984911;28;20552;-63
2021/03/08 09:37:14;;;;;;;29.25;14.70;;;;;;;;;;4983889;28;20036;-63
2021/03/08 09:39:49;;;;;;;25.35;13.95;;;;;;;;;;4981304;28;20034;-63
2021/03/08 09:42:15;;;;;;;28.27;16.38;;;;;;;;;;4982909;28;20022;-63
2021/03/08 09:44:45;;;;;;;27.73;16.65;;;;;;;;;;4984350;28;20018;-63
2021/03/08 09:47:12;;;;;;;26.05;15.57;;;;;;;;;;4984262;28;20022;-63
2021/03/08 09:49:51;;;;;;;25.88;16.02;;;;;;;;;;4983979;28;20030;-63
2021/03/08 09:52:37;;;;;;;24.45;15.52;;;;;;;;;;4985967;28;20173;-64
2021/03/08 09:55:10;;;;;;;33.22;17.90;;;;;;;;;;4985471;28;20073;-63
2021/03/08 09:57:37;;;;;;;24.45;14.95;;;;;;;;;;4985253;28;20054;-63
2021/03/08 10:00:06;;;;;;;27.27;15.90;;;;;;;;;;4983744;28;20055;-63
2021/03/08 10:02:32;;;;;;;27.33;14.77;;;;;;;;;;4984099;28;20089;-64
2021/03/08 10:04:59;;;;;;;72.90;37.38;;;;;;;;;;4985614;28;20038;-63
2021/03/08 10:07:25;;;;;;;34.55;17.42;;;;;;;;;;4986041;28;20046;-64
2021/03/08 10:10:10;;;;;;;39.28;22.10;;;;;;;;;;4984535;28;20133;-64
2021/03/08 10:12:37;;;;;;;37.28;19.95;;;;;;;;;;4985498;28;20027;-64
2021/03/08 10:15:03;;;;;;;26.42;14.60;;;;;;;;;;4983548;28;20073;-63
2021/03/08 10:17:29;;;;;;;27.17;17.17;;;;;;;;;;4985937;28;20097;-63
2021/03/08 10:19:56;;;;;;;30.98;16.40;;;;;;;;;;4974789;28;20169;-62
2021/03/08 10:22:35;;;;;;;28.15;16.58;;;;;;;;;;4985798;28;20037;-63
2021/03/08 10:25:22;;;;;;;27.88;15.80;;;;;;;;;;4974123;28;20062;-63
2021/03/08 10:27:52;;;;;;;24.85;13.82;;;;;;;;;;4973045;28;20045;-65
2021/03/08 10:30:19;;;;;;;28.65;16.10;;;;;;;;;;4974221;28;20035;-64
2021/03/08 10:32:46;;;;;;;27.05;16.00;;;;;;;;;;4973857;28;20054;-65
2021/03/08 10:35:12;;;;;;;22.42;14.95;;;;;;;;;;4971662;28;20027;-64
2021/03/08 10:37:40;;;;;;;24.40;15.00;;;;;;;;;;4974283;28;20042;-64
2021/03/08 10:40:07;;;;;;;23.65;15.48;;;;;;;;;;4975111;28;20031;-64
2021/03/08 10:42:33;;;;;;;25.38;15.88;;;;;;;;;;4977085;28;20054;-63
2021/03/08 10:45:00;;;;;;;27.48;16.85;;;;;;;;;;4977654;28;20031;-64
2021/03/08 10:47:26;;;;;;;25.38;16.02;;;;;;;;;;4983486;28;20470;-64
2021/03/08 10:49:54;;;;;;;24.58;14.90;;;;;;;;;;4985689;28;20044;-64
2021/03/08 10:52:20;;;;;;;25.17;14.93;;;;;;;;;;4985285;28;20026;-64
2021/03/08 10:54:47;;;;;;;27.90;15.82;;;;;;;;;;4994493;28;20030;-64
2021/03/08 10:57:13;;;;;;;28.48;16.92;;;;;;;;;;4989490;28;20058;-64
2021/03/08 10:59:50;;;;;;;26.63;16.23;;;;;;;;;;4983822;28;20065;-64
2021/03/08 11:02:16;;;;;;;29.88;17.73;;;;;;;;;;4983199;28;20533;-64
2021/03/08 11:04:43;;;;;;;30.77;18.67;;;;;;;;;;4982932;28;20030;-63
2021/03/08 11:07:10;;;;;;;29.95;18.27;;;;;;;;;;4980460;28;20031;-64
2021/03/08 11:09:37;;;;;;;32.45;19.02;;;;;;;;;;4981620;28;20034;-63
2021/03/08 11:12:05;;;;;;;30.67;17.45;;;;;;;;;;4982830;28;20038;-62
2021/03/08 11:14:50;;;;;;;30.88;17.02;;;;;;;;;;4979007;28;20066;-62
2021/03/08 11:17:16;;;;;;;34.28;18.88;;;;;;;;;;4981952;28;20070;-63
2021/03/08 11:19:42;;;;;;;31.95;18.10;;;;;;;;;;4983362;28;20039;-64
2021/03/08 11:22:10;;;;;;;31.35;18.92;;;;;;;;;;4985424;28;20360;-65
2021/03/08 11:24:46;;;;;;;37.58;21.27;;;;;;;;;;4981186;28;20098;-64
2021/03/08 11:27:24;;;;;;;32.03;19.08;;;;;;;;;;4973341;28;20034;-63
2021/03/08 11:29:57;;;;;;;33.78;17.92;;;;;;;;;;4974197;28;20073;-64
2021/03/08 11:32:27;;;;;;;34.30;19.10;;;;;;;;;;4974263;28;20461;-63
2021/03/08 11:34:53;;;;;;;33.75;19.38;;;;;;;;;;4975186;28;20031;-62
2021/03/08 11:37:20;;;;;;;29.52;18.27;;;;;;;;;;4973910;28;20098;-65
2021/03/08 11:39:47;;;;;;;31.65;18.45;;;;;;;;;;4971670;28;20092;-65
2021/03/08 11:42:14;;;;;;;33.17;17.33;;;;;;;;;;4971909;28;20057;-62
2021/03/08 11:44:40;;;;;;;26.50;15.43;;;;;;;;;;4970598;28;20035;-63
2021/03/08 11:47:07;;;;;;;42.17;23.13;;;;;;;;;;4971818;28;20037;-63
2021/03/08 11:49:33;;;;;;;36.10;19.65;;;;;;;;;;4972956;28;20106;-63
2021/03/08 11:52:00;;;;;;;27.92;16.48;;;;;;;;;;4973632;28;20477;-62
2021/03/08 11:54:26;;;;;;;25.55;15.25;;;;;;;;;;4979988;28;20023;-63
2021/03/08 11:56:52;;;;;;;28.48;16.50;;;;;;;;;;4984064;28;20062;-63
2021/03/08 11:59:19;;;;;;;31.02;16.90;;;;;;;;;;4983321;28;20035;-62
2021/03/08 12:01:45;;;;;;;28.38;16.45;;;;;;;;;;4992477;28;20113;-63
2021/03/08 12:04:11;;;;;;;26.88;16.98;;;;;;;;;;4996622;28;20408;-64
2021/03/08 12:06:37;;;;;;;29.60;16.55;;;;;;;;;;4995053;28;20025;-64
2021/03/08 12:09:03;;;;;;;28.05;16.52;;;;;;;;;;4984445;28;20363;-64
2021/03/08 12:11:29;;;;;;;28.92;17.25;;;;;;;;;;4984366;28;20031;-64
2021/03/08 12:13:55;;;;;;;29.35;16.20;;;;;;;;;;4982348;28;20034;-64
2021/03/08 12:16:21;;;;;;;24.02;16.77;;;;;;;;;;4997436;28;20109;-66
2021/03/08 12:18:48;;;;;;;26.52;17.05;;;;;;;;;;4997624;28;20034;-64
2021/03/08 12:23:50;;;;;;;28.65;17.45;;;;;;;;;;4914481;23;20133;-64
2021/03/08 12:26:16;;;;;;;28.10;17.15;;;;;;;;;;4997329;28;20038;-64
2021/03/08 12:28:42;;;;;;;28.65;16.90;;;;;;;;;;4996887;28;20384;-64
2021/03/08 12:31:08;;;;;;;29.00;17.17;;;;;;;;;;4997107;28;20038;-64
2021/03/08 12:33:34;;;;;;;30.38;17.50;;;;;;;;;;4996973;28;20101;-64
2021/03/08 12:36:01;;;;;;;26.50;16.83;;;;;;;;;;4996955;28;20085;-64
2021/03/08 12:38:27;;;;;;;27.90;16.80;;;;;;;;;;4996981;28;20049;-64
2021/03/08 12:40:53;;;;;;;32.13;18.90;;;;;;;;;;4997227;28;20053;-64
2021/03/08 12:43:20;;;;;;;29.65;17.42;;;;;;;;;;4996877;28;20022;-64
2021/03/08 12:45:46;;;;;;;30.95;18.13;;;;;;;;;;4996716;28;20041;-64
2021/03/08 12:48:12;;;;;;;26.95;17.00;;;;;;;;;;4996778;28;20015;-64
2021/03/08 12:50:38;;;;;;;30.15;17.98;;;;;;;;;;4997059;28;20424;-64
2021/03/08 12:53:04;;;;;;;26.20;16.13;;;;;;;;;;4996398;28;20105;-64
2021/03/08 12:55:30;;;;;;;29.10;17.90;;;;;;;;;;4997169;28;20027;-64
2021/03/08 12:57:56;;;;;;;27.58;16.80;;;;;;;;;;4996292;28;20027;-63
2021/03/08 13:00:22;;;;;;;31.13;18.92;;;;;;;;;;4996530;28;20026;-66
2021/03/08 13:02:48;;;;;;;27.25;16.95;;;;;;;;;;4996793;28;20046;-65
2021/03/08 13:05:15;;;;;;;26.33;16.73;;;;;;;;;;4996112;28;20488;-63
2021/03/08 13:07:41;;;;;;;28.35;16.85;;;;;;;;;;4996353;28;20196;-62
2021/03/08 13:10:07;;;;;;;30.77;18.10;;;;;;;;;;4996543;28;20026;-61
2021/03/08 13:12:33;;;;;;;31.50;17.55;;;;;;;;;;4995619;28;20381;-61
2021/03/08 13:14:59;;;;;;;28.38;17.55;;;;;;;;;;4996541;28;20081;-62
2021/03/08 13:17:25;;;;;;;29.23;17.85;;;;;;;;;;4996146;28;20386;-63
2021/03/08 13:19:52;;;;;;;30.05;18.33;;;;;;;;;;4996007;28;20036;-63
2021/03/08 13:22:18;;;;;;;31.55;18.10;;;;;;;;;;4995979;28;20023;-63
2021/03/08 13:24:44;;;;;;;28.92;17.70;;;;;;;;;;4996188;28;20134;-63
2021/03/08 13:27:10;;;;;;;31.50;18.27;;;;;;;;;;4995849;28;20088;-68
2021/03/08 13:29:37;;;;;;;28.98;16.73;;;;;;;;;;4996310;28;20018;-64
2021/03/08 13:32:05;;;;;;;28.08;17.02;;;;;;;;;;4993053;28;20038;-63
2021/03/08 13:34:33;;;;;;;28.88;17.65;;;;;;;;;;4983041;28;20027;-62
2021/03/08 13:36:59;;;;;;;27.10;16.38;;;;;;;;;;4991004;28;20062;-62
2021/03/08 13:39:25;;;;;;;46.47;23.85;;;;;;;;;;4976830;28;20041;-62
2021/03/08 13:41:51;;;;;;;41.05;21.88;;;;;;;;;;4985364;28;20062;-65
2021/03/08 13:44:18;;;;;;;31.52;18.52;;;;;;;;;;4986170;28;20030;-63
2021/03/08 13:46:44;;;;;;;27.00;17.27;;;;;;;;;;4985937;28;20495;-62
2021/03/08 13:49:10;;;;;;;30.23;17.83;;;;;;;;;;4984279;28;20022;-62
2021/03/08 13:51:36;;;;;;;30.70;17.35;;;;;;;;;;4986263;28;20496;-62
2021/03/08 13:54:02;;;;;;;28.52;17.23;;;;;;;;;;4986338;28;20157;-63
2021/03/08 13:56:30;;;;;;;25.88;16.17;;;;;;;;;;4985573;28;20015;-62
2021/03/08 13:58:56;;;;;;;27.80;16.88;;;;;;;;;;4985084;28;20030;-62
2021/03/08 14:01:22;;;;;;;25.67;16.20;;;;;;;;;;4987499;28;20029;-62
2021/03/08 14:03:49;;;;;;;27.17;17.00;;;;;;;;;;4988122;28;20469;-62
2021/03/08 14:06:15;;;;;;;30.58;17.80;;;;;;;;;;4983694;28;20113;-62
2021/03/08 14:08:41;;;;;;;29.13;17.67;;;;;;;;;;4984554;28;20041;-62
2021/03/08 14:11:07;;;;;;;29.45;16.55;;;;;;;;;;4989222;28;20054;-63
2021/03/08 14:13:33;;;;;;;29.98;15.55;;;;;;;;;;4987480;28;20068;-63
2021/03/08 14:15:59;;;;;;;28.45;15.57;;;;;;;;;;4982542;28;20440;-63
2021/03/08 14:18:25;;;;;;;25.45;15.85;;;;;;;;;;4983396;28;20046;-63
2021/03/08 14:20:51;;;;;;;26.67;15.85;;;;;;;;;;4978281;28;20031;-64
2021/03/08 14:23:18;;;;;;;27.27;16.88;;;;;;;;;;4984946;28;20050;-65
2021/03/08 14:25:44;;;;;;;25.38;15.57;;;;;;;;;;4984188;28;20023;-64
2021/03/08 14:28:10;;;;;;;29.00;16.83;;;;;;;;;;4986004;28;20481;-64
2021/03/08 14:30:36;;;;;;;62.67;29.92;;;;;;;;;;4984426;28;20030;-64
2021/03/08 14:33:03;;;;;;;27.80;15.70;;;;;;;;;;4984140;28;20359;-64
2021/03/08 14:35:29;;;;;;;27.83;16.60;;;;;;;;;;4985329;28;20030;-65
2021/03/08 14:37:56;;;;;;;27.77;16.30;;;;;;;;;;4986252;28;20022;-65
2021/03/08 14:40:27;;;;;;;23.88;15.43;;;;;;;;;;4983692;28;20029;-64
2021/03/08 14:42:53;;;;;;;38.03;18.88;;;;;;;;;;4979651;28;20035;-64
2021/03/08 14:45:19;;;;;;;26.75;16.48;;;;;;;;;;4974996;28;20110;-64
2021/03/08 14:47:45;;;;;;;29.15;16.33;;;;;;;;;;4975604;28;20031;-64
2021/03/08 14:50:11;;;;;;;28.42;17.17;;;;;;;;;;4980316;28;20034;-65
2021/03/08 14:52:38;;;;;;;36.78;19.17;;;;;;;;;;4994557;28;20034;-64
2021/03/08 14:55:04;;;;;;;32.97;18.02;;;;;;;;;;4991465;28;20065;-65
2021/03/08 14:57:32;;;;;;;29.85;17.05;;;;;;;;;;4994549;28;20034;-65
2021/03/08 15:00:00;;;;;;;31.23;17.35;;;;;;;;;;4994119;28;20028;-65
2021/03/08 15:02:27;;;;;;;33.83;18.33;;;;;;;;;;4988672;28;20031;-64
2021/03/08 15:04:53;;;;;;;33.70;18.48;;;;;;;;;;4984525;28;20077;-65
2021/03/08 15:07:19;;;;;;;35.70;19.45;;;;;;;;;;4985537;28;20026;-64
2021/03/08 15:09:45;;;;;;;32.17;19.55;;;;;;;;;;4983097;28;20027;-64
2021/03/08 15:12:11;;;;;;;28.15;16.83;;;;;;;;;;4984436;28;20034;-63
2021/03/08 15:14:37;;;;;;;35.55;18.85;;;;;;;;;;4985011;28;20015;-64
2021/03/08 15:17:03;;;;;;;29.75;17.80;;;;;;;;;;4982768;28;20081;-64
2021/03/08 15:19:29;;;;;;;31.90;18.48;;;;;;;;;;4984900;28;20461;-65
2021/03/08 15:21:56;;;;;;;36.25;19.10;;;;;;;;;;4984910;28;20086;-65
2021/03/08 15:24:22;;;;;;;31.67;18.58;;;;;;;;;;4982915;28;20421;-64
2021/03/08 15:26:48;;;;;;;36.10;18.65;;;;;;;;;;4974788;28;20113;-68
2021/03/08 15:29:14;;;;;;;33.63;18.50;;;;;;;;;;4983691;28;20033;-64
2021/03/08 15:31:40;;;;;;;34.60;19.67;;;;;;;;;;4981926;28;20031;-64
2021/03/08 15:34:06;;;;;;;33.13;18.92;;;;;;;;;;4980426;28;20023;-64
2021/03/08 15:36:33;;;;;;;28.25;17.35;;;;;;;;;;4979727;28;20025;-65
2021/03/08 15:38:59;;;;;;;39.25;18.73;;;;;;;;;;4984236;28;20026;-65
2021/03/08 15:41:25;;;;;;;27.52;17.52;;;;;;;;;;4986714;28;20018;-64
2021/03/08 15:43:51;;;;;;;30.35;17.38;;;;;;;;;;4981688;28;20115;-63
2021/03/08 15:46:17;;;;;;;31.35;16.17;;;;;;;;;;4984203;28;20030;-71
2021/03/08 15:48:43;;;;;;;24.63;14.73;;;;;;;;;;4983964;28;20425;-65
2021/03/08 15:51:09;;;;;;;26.42;14.70;;;;;;;;;;4983572;28;20058;-65
2021/03/08 15:53:35;;;;;;;29.80;15.57;;;;;;;;;;4981975;28;20026;-65
2021/03/08 15:56:01;;;;;;;29.80;16.35;;;;;;;;;;4966945;28;20386;-64
2021/03/08 15:58:27;;;;;;;25.13;14.20;;;;;;;;;;4985749;28;20027;-64
2021/03/08 16:00:53;;;;;;;25.08;14.13;;;;;;;;;;4981680;28;20023;-64
2021/03/08 16:03:19;;;;;;;23.35;12.80;;;;;;;;;;4986380;28;20517;-64
2021/03/08 16:05:46;;;;;;;20.50;12.00;;;;;;;;;;4979506;28;20371;-63
2021/03/08 16:08:12;;;;;;;24.30;13.15;;;;;;;;;;4980605;28;20014;-64
2021/03/08 16:10:38;;;;;;;20.70;12.02;;;;;;;;;;4979994;28;20057;-64
2021/03/08 16:13:04;;;;;;;19.75;12.02;;;;;;;;;;4980419;28;20035;-63
2021/03/08 16:15:30;;;;;;;18.58;11.60;;;;;;;;;;4982333;28;20466;-63
2021/03/08 16:17:56;;;;;;;24.77;12.80;;;;;;;;;;4985808;28;20026;-63
2021/03/08 16:20:22;;;;;;;22.33;13.48;;;;;;;;;;4985877;28;20026;-63
2021/03/08 16:22:48;;;;;;;20.20;12.45;;;;;;;;;;4985598;28;20389;-64
2021/03/08 16:25:15;;;;;;;24.58;13.20;;;;;;;;;;4983445;28;20052;-64
2021/03/08 16:27:41;;;;;;;27.50;13.50;;;;;;;;;;4982412;28;20029;-63
2021/03/08 16:30:08;;;;;;;24.35;13.63;;;;;;;;;;4983169;28;20109;-64
2021/03/08 16:32:34;;;;;;;27.83;14.57;;;;;;;;;;4984181;28;20037;-63
2021/03/08 16:35:01;;;;;;;22.58;12.90;;;;;;;;;;4982309;28;20033;-63
2021/03/08 16:37:27;;;;;;;26.35;14.10;;;;;;;;;;4983552;28;20029;-63
2021/03/08 16:39:55;;;;;;;28.30;14.80;;;;;;;;;;4986674;28;20027;-63
2021/03/08 16:42:21;;;;;;;25.80;14.52;;;;;;;;;;4981005;28;20027;-63
2021/03/08 16:44:52;;;;;;;29.95;15.82;;;;;;;;;;4980117;28;20089;-64
2021/03/08 16:47:20;;;;;;;33.13;16.27;;;;;;;;;;4981868;28;20050;-63
2021/03/08 16:50:10;;;;;;;36.97;18.08;;;;;;;;;;4986747;28;20458;-64
2021/03/08 16:52:40;;;;;;;31.05;17.17;;;;;;;;;;4977373;28;20074;-64
2021/03/08 16:55:08;;;;;;;34.83;18.15;;;;;;;;;;4976127;28;20046;-64
2021/03/08 16:57:34;;;;;;;36.58;17.77;;;;;;;;;;4976079;28;20374;-66
2021/03/08 17:00:00;;;;;;;29.30;16.63;;;;;;;;;;4982061;28;20038;-63
2021/03/08 17:02:26;;;;;;;35.20;16.90;;;;;;;;;;4985577;28;20093;-62
2021/03/08 17:04:52;;;;;;;35.58;17.08;;;;;;;;;;4986756;28;20520;-64
2021/03/08 17:07:18;;;;;;;31.60;16.63;;;;;;;;;;4984223;28;20026;-64
2021/03/08 17:09:44;;;;;;;27.23;16.50;;;;;;;;;;4984083;28;20061;-63
2021/03/08 17:12:11;;;;;;;30.58;17.15;;;;;;;;;;4986604;28;20528;-63
2021/03/08 17:14:37;;;;;;;28.52;16.23;;;;;;;;;;4986114;28;20095;-62
2021/03/08 17:17:03;;;;;;;30.48;15.88;;;;;;;;;;4988971;28;20405;-62
2021/03/08 17:19:29;;;;;;;27.52;16.23;;;;;;;;;;4992817;28;20031;-62
2021/03/08 17:21:55;;;;;;;31.60;16.90;;;;;;;;;;4988263;28;20113;-62
2021/03/08 17:24:21;;;;;;;27.98;15.65;;;;;;;;;;4985056;28;20134;-62
2021/03/08 17:26:47;;;;;;;32.90;16.77;;;;;;;;;;4983868;28;20454;-62
2021/03/08 17:29:13;;;;;;;30.85;16.13;;;;;;;;;;4986741;28;20076;-62
2021/03/08 17:31:40;;;;;;;46.17;24.13;;;;;;;;;;4987894;28;20109;-63
2021/03/08 17:34:06;;;;;;;78.45;38.08;;;;;;;;;;4984763;28;20418;-62
2021/03/08 17:36:32;;;;;;;33.22;15.95;;;;;;;;;;4981162;28;20026;-62
2021/03/08 17:38:58;;;;;;;38.38;20.38;;;;;;;;;;4981554;28;20023;-63
2021/03/08 17:41:24;;;;;;;31.35;16.48;;;;;;;;;;4982633;28;20102;-63
2021/03/08 17:43:50;;;;;;;33.35;16.10;;;;;;;;;;4982256;28;20018;-62
2021/03/08 17:46:16;;;;;;;32.63;16.30;;;;;;;;;;4986748;28;20026;-63
2021/03/08 17:48:42;;;;;;;33.28;17.27;;;;;;;;;;4984849;28;20030;-62
2021/03/08 17:51:09;;;;;;;40.60;24.40;;;;;;;;;;4985877;28;20531;-63
2021/03/08 17:53:35;;;;;;;48.22;25.33;;;;;;;;;;4987480;28;20034;-61
2021/03/08 17:56:01;;;;;;;42.85;22.50;;;;;;;;;;4986032;28;20497;-62
2021/03/08 17:58:27;;;;;;;48.58;24.15;;;;;;;;;;4992481;28;20106;-63
2021/03/08 18:00:53;;;;;;;45.17;24.20;;;;;;;;;;4992617;28;20181;-63
2021/03/08 18:03:19;;;;;;;41.47;23.92;;;;;;;;;;4990694;28;20023;-63
2021/03/08 18:05:45;;;;;;;53.45;27.67;;;;;;;;;;4984901;28;20105;-63
2021/03/08 18:08:11;;;;;;;51.38;25.77;;;;;;;;;;4985495;28;20158;-63
2021/03/08 18:10:38;;;;;;;53.42;27.48;;;;;;;;;;4989914;28;20037;-65
2021/03/08 18:13:04;;;;;;;53.15;27.83;;;;;;;;;;4995771;28;20122;-64
2021/03/08 18:15:30;;;;;;;52.05;27.58;;;;;;;;;;4990750;28;20030;-62
2021/03/08 18:17:56;;;;;;;50.67;26.63;;;;;;;;;;4976234;28;20079;-62
2021/03/08 18:20:24;;;;;;;47.50;25.38;;;;;;;;;;4975775;28;20102;-63
2021/03/08 18:22:50;;;;;;;49.03;25.20;;;;;;;;;;4984720;28;20393;-63
2021/03/08 18:25:16;;;;;;;43.13;23.13;;;;;;;;;;4992034;28;20019;-64
2021/03/08 18:27:42;;;;;;;34.47;17.65;;;;;;;;;;4992056;28;20348;-64
2021/03/08 18:30:08;;;;;;;42.60;22.88;;;;;;;;;;4991897;28;20104;-64
2021/03/08 18:32:34;;;;;;;40.92;21.52;;;;;;;;;;4986570;28;20039;-63
2021/03/08 18:35:01;;;;;;;35.60;19.05;;;;;;;;;;4980500;28;20019;-62
2021/03/08 18:37:27;;;;;;;41.05;21.48;;;;;;;;;;4985125;28;20018;-63
2021/03/08 18:39:53;;;;;;;38.38;20.50;;;;;;;;;;4987064;28;20191;-62
2021/03/08 18:42:19;;;;;;;39.80;19.95;;;;;;;;;;4981531;28;20026;-62
2021/03/08 18:44:45;;;;;;;34.03;17.85;;;;;;;;;;4982903;28;20023;-64
2021/03/08 18:47:11;;;;;;;38.17;20.70;;;;;;;;;;4981956;28;20412;-63
2021/03/08 18:49:37;;;;;;;39.38;19.95;;;;;;;;;;4986156;28;20034;-61
2021/03/08 18:52:04;;;;;;;45.55;22.13;;;;;;;;;;4981916;28;20044;-63
2021/03/08 18:54:30;;;;;;;28.13;15.02;;;;;;;;;;4986727;28;20023;-62
2021/03/08 18:56:57;;;;;;;32.67;17.67;;;;;;;;;;4982597;28;20081;-62
2021/03/08 18:59:24;;;;;;;29.13;14.75;;;;;;;;;;4981025;28;20092;-62
2021/03/08 19:01:55;;;;;;;26.60;15.80;;;;;;;;;;4968309;28;20098;-62
2021/03/08 19:04:21;;;;;;;26.75;14.50;;;;;;;;;;4983096;28;20028;-62
2021/03/08 19:06:48;;;;;;;27.67;14.65;;;;;;;;;;4985204;28;20053;-63
2021/03/08 19:09:14;;;;;;;27.67;14.48;;;;;;;;;;4968511;28;20079;-63
2021/03/08 19:11:41;;;;;;;27.52;15.20;;;;;;;;;;4978021;28;20114;-63
2021/03/08 19:14:07;;;;;;;35.03;16.52;;;;;;;;;;4989838;28;20033;-62
2021/03/08 19:16:33;;;;;;;26.40;14.95;;;;;;;;;;4992737;28;20046;-63
2021/03/08 19:18:59;;;;;;;23.65;13.48;;;;;;;;;;4980649;28;20027;-63
2021/03/08 19:21:29;;;;;;;24.63;12.27;;;;;;;;;;4960917;28;20039;-62
2021/03/08 19:23:55;;;;;;;26.98;13.90;;;;;;;;;;4982752;28;20046;-62
2021/03/08 19:26:22;;;;;;;22.63;11.80;;;;;;;;;;4973005;28;20417;-62
2021/03/08 19:28:48;;;;;;;25.30;13.25;;;;;;;;;;4990911;28;20034;-64
2021/03/08 19:31:15;;;;;;;25.23;13.50;;;;;;;;;;4957788;28;20034;-62
2021/03/08 19:33:41;;;;;;;24.77;12.35;;;;;;;;;;4979558;28;20025;-64
2021/03/08 19:36:07;;;;;;;25.35;13.00;;;;;;;;;;4988759;28;20053;-63
2021/03/08 19:38:33;;;;;;;22.85;12.80;;;;;;;;;;4982319;28;20030;-64
2021/03/08 19:40:59;;;;;;;28.40;15.10;;;;;;;;;;4980429;28;20030;-62
2021/03/08 19:43:25;;;;;;;27.45;13.95;;;;;;;;;;4983077;28;20030;-62
2021/03/08 19:45:51;;;;;;;26.58;14.20;;;;;;;;;;4982879;28;20035;-63
2021/03/08 19:48:18;;;;;;;25.58;13.43;;;;;;;;;;4980819;28;20478;-63
2021/03/08 19:50:44;;;;;;;35.17;13.48;;;;;;;;;;4983277;28;20027;-63
2021/03/08 19:53:12;;;;;;;22.67;11.15;;;;;;;;;;4982494;28;20529;-63
2021/03/08 19:55:38;;;;;;;26.17;12.50;;;;;;;;;;4984877;28;20034;-63
2021/03/08 19:58:04;;;;;;;28.85;13.88;;;;;;;;;;4973498;28;20070;-64
2021/03/08 20:00:30;;;;;;;26.67;14.07;;;;;;;;;;4978313;28;20466;-61
2021/03/08 20:02:56;;;;;;;24.40;12.95;;;;;;;;;;4978889;28;20065;-62
2021/03/08 20:05:23;;;;;;;24.55;12.70;;;;;;;;;;4978478;28;20023;-64
2021/03/08 20:07:49;;;;;;;20.85;11.15;;;;;;;;;;4978754;28;20022;-62
2021/03/08 20:10:15;;;;;;;23.85;12.65;;;;;;;;;;4985075;28;20504;-63
2021/03/08 20:12:41;;;;;;;27.92;12.30;;;;;;;;;;4985109;28;20046;-63
2021/03/08 20:15:09;;;;;;;25.90;12.93;;;;;;;;;;4983472;28;20034;-63
2021/03/08 20:17:38;;;;;;;31.55;14.60;;;;;;;;;;4985109;28;20157;-62